createdAt,value
2019-06-01T00:01:38.324Z,18.43
2019-06-01T00:04:09.810Z,16.23
2019-06-01T00:06:40.796Z,16.43
2019-06-01T00:09:12.560Z,18.40
2019-06-01T00:11:43.381Z,15.43
2019-06-01T00:14:14.407Z,21.80
2019-06-01T00:16:46.032Z,20.87
2019-06-01T00:19:16.955Z,23.40
2019-06-01T00:21:47.979Z,18.10
2019-06-01T00:24:18.899Z,17.00
2019-06-01T00:26:51.993Z,19.43
2019-06-01T00:29:22.819Z,15.43
2019-06-01T00:31:53.579Z,15.97
2019-06-01T00:34:24.263Z,14.13
2019-06-01T00:36:55.349Z,20.40
2019-06-01T00:39:26.146Z,14.47
2019-06-01T00:41:57.034Z,14.97
2019-06-01T00:44:27.691Z,19.00
2019-06-01T00:46:59.147Z,17.80
2019-06-01T00:49:29.710Z,16.73
2019-06-01T00:52:00.578Z,15.50
2019-06-01T00:54:31.532Z,17.57
2019-06-01T00:57:02.382Z,13.63
2019-06-01T00:59:33.387Z,19.57
2019-06-01T01:02:04.775Z,18.63
2019-06-01T01:04:35.626Z,17.03
2019-06-01T01:07:06.553Z,16.50
2019-06-01T01:09:37.661Z,15.97
2019-06-01T01:12:08.538Z,18.60
2019-06-01T01:14:39.283Z,17.87
2019-06-01T01:17:10.075Z,16.50
2019-06-01T01:19:40.811Z,15.33
2019-06-01T01:22:11.618Z,13.63
2019-06-01T01:24:42.594Z,14.97
2019-06-01T01:27:13.287Z,14.77
2019-06-01T01:29:44.113Z,17.70
2019-06-01T01:32:14.938Z,17.07
2019-06-01T01:34:45.672Z,12.87
2019-06-01T01:37:16.325Z,14.80
2019-06-01T01:39:48.034Z,12.20
2019-06-01T01:42:18.802Z,14.17
2019-06-01T01:44:50.502Z,16.90
2019-06-01T01:47:21.663Z,13.00
2019-06-01T01:49:52.323Z,13.70
2019-06-01T01:52:23.010Z,14.30
2019-06-01T01:54:54.733Z,7.93
2019-06-01T01:57:25.584Z,9.40
2019-06-01T01:59:57.398Z,9.60
2019-06-01T02:02:30.325Z,15.97
2019-06-01T02:05:02.179Z,20.20
2019-06-01T02:07:35.786Z,11.87
2019-06-01T02:10:08.889Z,14.07
2019-06-01T02:12:39.686Z,18.37
2019-06-01T02:15:10.502Z,11.53
2019-06-01T02:17:41.290Z,8.43
2019-06-01T02:20:12.492Z,8.60
2019-06-01T02:22:43.092Z,9.07
2019-06-01T02:25:13.975Z,8.53
2019-06-01T02:27:44.840Z,8.07
2019-06-01T02:30:17.199Z,7.73
2019-06-01T02:32:47.899Z,9.57
2019-06-01T02:35:18.532Z,7.07
2019-06-01T02:37:49.257Z,9.03
2019-06-01T02:40:20.527Z,8.80
2019-06-01T02:42:51.230Z,6.63
2019-06-01T02:45:22.624Z,7.37
2019-06-01T02:47:57.437Z,11.83
2019-06-01T02:50:28.633Z,13.23
2019-06-01T02:52:59.689Z,11.77
2019-06-01T02:55:30.377Z,9.40
2019-06-01T02:58:02.388Z,14.13
2019-06-01T03:00:48.217Z,17.80
2019-06-01T03:03:19.959Z,15.27
2019-06-01T03:05:53.644Z,15.23
2019-06-01T03:08:26.788Z,17.47
2019-06-01T03:10:59.692Z,14.70
2019-06-01T03:13:33.579Z,19.83
2019-06-01T03:16:08.918Z,15.43
2019-06-01T03:18:43.054Z,11.80
2019-06-01T03:21:16.777Z,10.00
2019-06-01T03:23:50.000Z,11.33
2019-06-01T03:26:23.688Z,8.33
2019-06-01T03:28:54.654Z,10.93
2019-06-01T03:31:25.326Z,11.37
2019-06-01T03:33:56.416Z,13.33
2019-06-01T03:36:27.211Z,11.47
2019-06-01T03:38:59.988Z,11.27
2019-06-01T03:41:32.133Z,14.97
2019-06-01T03:44:04.407Z,14.27
2019-06-01T03:46:35.289Z,16.93
2019-06-01T03:49:06.197Z,11.90
2019-06-01T03:51:37.503Z,16.17
2019-06-01T03:54:09.966Z,14.30
2019-06-01T03:56:41.310Z,15.70
2019-06-01T03:59:12.324Z,13.30
2019-06-01T04:01:47.060Z,18.17
2019-06-01T04:04:17.560Z,15.70
2019-06-01T04:06:49.147Z,13.83
2019-06-01T04:09:20.160Z,12.90
2019-06-01T04:11:50.976Z,13.97
2019-06-01T04:14:23.501Z,13.70
2019-06-01T04:16:54.921Z,15.80
2019-06-01T04:19:26.893Z,14.50
2019-06-01T04:21:57.796Z,15.03
2019-06-01T04:24:28.517Z,16.13
2019-06-01T04:26:59.338Z,14.33
2019-06-01T04:29:30.139Z,16.03
2019-06-01T04:32:02.402Z,14.57
2019-06-01T04:34:35.713Z,18.60
2019-06-01T04:37:07.049Z,15.53
2019-06-01T04:39:38.225Z,17.80
2019-06-01T04:42:09.778Z,15.57
2019-06-01T04:44:40.814Z,13.67
2019-06-01T04:47:12.569Z,17.77
2019-06-01T04:49:43.440Z,14.83
2019-06-01T04:52:15.224Z,14.33
2019-06-01T04:54:46.326Z,14.87
2019-06-01T04:57:17.278Z,13.83
2019-06-01T04:59:48.533Z,15.40
2019-06-01T05:02:19.600Z,12.33
2019-06-01T05:04:50.641Z,18.53
2019-06-01T05:07:21.433Z,12.37
2019-06-01T05:09:52.216Z,16.70
2019-06-01T05:12:23.148Z,13.07
2019-06-01T05:14:53.786Z,12.53
2019-06-01T05:17:24.566Z,13.60
2019-06-01T05:19:57.212Z,14.33
2019-06-01T05:22:28.231Z,16.37
2019-06-01T05:24:59.320Z,11.23
2019-06-01T05:27:30.200Z,12.07
2019-06-01T05:30:00.947Z,16.45
2019-06-01T05:32:32.084Z,15.03
2019-06-01T05:35:02.892Z,13.55
2019-06-01T05:37:34.087Z,12.73
2019-06-01T05:40:10.481Z,14.47
2019-06-01T05:42:42.161Z,16.05
2019-06-01T05:45:13.583Z,16.40
2019-06-01T05:47:44.337Z,15.55
2019-06-01T05:50:18.865Z,12.13
2019-06-01T05:52:49.795Z,11.65
2019-06-01T05:55:20.882Z,12.33
2019-06-01T05:57:51.881Z,15.50
2019-06-01T06:00:31.747Z,12.60
2019-06-01T06:03:03.500Z,11.95
2019-06-01T06:05:35.195Z,15.15
2019-06-01T06:08:06.822Z,11.73
2019-06-01T06:10:37.524Z,11.57
2019-06-01T06:13:08.265Z,12.33
2019-06-01T06:15:39.023Z,15.03
2019-06-01T06:18:10.131Z,9.98
2019-06-01T06:20:40.859Z,11.00
2019-06-01T06:23:12.215Z,14.15
2019-06-01T06:25:43.134Z,12.28
2019-06-01T06:28:14.607Z,12.58
2019-06-01T06:30:45.502Z,15.58
2019-06-01T06:33:17.356Z,15.20
2019-06-01T06:35:48.958Z,11.48
2019-06-01T06:38:20.020Z,11.38
2019-06-01T06:40:53.207Z,7.95
2019-06-01T06:43:32.431Z,10.45
2019-06-01T06:45:56.457Z,9.63
2019-06-01T06:48:27.208Z,11.08
2019-06-01T06:50:58.373Z,9.95
2019-06-01T06:53:34.984Z,7.80
2019-06-01T06:56:01.859Z,8.50
2019-06-01T06:58:32.621Z,7.92
2019-06-01T07:01:05.147Z,7.10
2019-06-01T07:03:36.198Z,6.22
2019-06-01T07:06:07.983Z,7.10
2019-06-01T07:08:38.931Z,5.33
2019-06-01T07:11:11.869Z,6.55
2019-06-01T07:13:42.738Z,6.50
2019-06-01T07:16:15.879Z,5.65
2019-06-01T07:18:46.453Z,8.28
2019-06-01T07:21:24.072Z,7.87
2019-06-01T07:23:55.543Z,8.23
2019-06-01T07:26:26.368Z,7.22
2019-06-01T07:28:58.730Z,8.38
2019-06-01T07:31:29.959Z,6.22
2019-06-01T07:34:02.208Z,6.65
2019-06-01T07:36:37.622Z,5.70
2019-06-01T07:39:08.784Z,5.95
2019-06-01T07:41:41.786Z,7.08
2019-06-01T07:44:12.894Z,7.78
2019-06-01T07:46:44.317Z,9.43
2019-06-01T07:49:15.232Z,7.08
2019-06-01T07:51:46.780Z,5.70
2019-06-01T07:54:18.279Z,8.70
2019-06-01T07:56:49.431Z,8.60
2019-06-01T07:59:21.326Z,6.58
2019-06-01T08:01:53.473Z,5.15
2019-06-01T08:04:26.672Z,6.45
2019-06-01T08:06:57.394Z,6.85
2019-06-01T08:09:29.589Z,6.62
2019-06-01T08:12:00.949Z,6.80
2019-06-01T08:14:32.875Z,8.73
2019-06-01T08:17:03.869Z,15.88
2019-06-01T08:19:53.194Z,7.65
2019-06-01T08:22:24.138Z,5.87
2019-06-01T08:24:54.947Z,5.33
2019-06-01T08:27:26.498Z,9.18
2019-06-01T08:29:57.418Z,4.42
2019-06-01T08:32:28.727Z,5.45
2019-06-01T08:35:08.676Z,7.10
2019-06-01T08:37:33.625Z,16.87
2019-06-01T08:40:07.687Z,6.85
2019-06-01T08:42:39.144Z,7.20
2019-06-01T08:45:10.662Z,7.08
2019-06-01T08:47:41.545Z,4.65
2019-06-01T08:50:12.892Z,5.28
2019-06-01T08:52:43.662Z,4.65
2019-06-01T08:55:15.278Z,6.42
2019-06-01T08:57:46.302Z,4.62
2019-06-01T09:00:17.825Z,5.45
2019-06-01T09:02:49.393Z,5.92
2019-06-01T09:05:24.277Z,7.30
2019-06-01T09:07:54.144Z,4.42
2019-06-01T09:10:25.296Z,6.90
2019-06-01T09:12:58.004Z,3.52
2019-06-01T09:15:29.738Z,5.53
2019-06-01T09:18:00.794Z,6.28
2019-06-01T09:20:35.869Z,4.58
2019-06-01T09:23:05.443Z,4.62
2019-06-01T09:25:36.219Z,5.03
2019-06-01T09:28:07.495Z,6.75
2019-06-01T09:30:38.814Z,5.08
2019-06-01T09:33:10.098Z,3.17
2019-06-01T09:35:54.356Z,5.30
2019-06-01T09:38:15.408Z,3.50
2019-06-01T09:40:46.574Z,3.98
2019-06-01T09:43:17.487Z,8.90
2019-06-01T09:45:52.771Z,5.65
2019-06-01T09:48:22.049Z,8.35
2019-06-01T09:50:53.144Z,6.20
2019-06-01T09:53:24.353Z,5.20
2019-06-01T09:55:55.415Z,3.98
2019-06-01T09:58:28.233Z,4.20
2019-06-01T10:00:59.376Z,4.97
2019-06-01T10:03:32.302Z,7.08
2019-06-01T10:06:04.420Z,4.75
2019-06-01T10:08:36.120Z,9.45
2019-06-01T10:11:07.481Z,4.65
2019-06-01T10:13:38.811Z,5.58
2019-06-01T10:16:10.353Z,4.83
2019-06-01T10:18:43.016Z,5.78
2019-06-01T10:21:14.111Z,5.00
2019-06-01T10:23:49.020Z,6.97
2019-06-01T10:26:18.088Z,6.35
2019-06-01T10:28:51.076Z,4.95
2019-06-01T10:31:22.275Z,5.45
2019-06-01T10:33:53.406Z,5.58
2019-06-01T10:36:24.662Z,4.67
2019-06-01T10:38:56.636Z,5.95
2019-06-01T10:41:27.935Z,6.50
2019-06-01T10:43:58.819Z,5.42
2019-06-01T10:46:29.836Z,7.90
2019-06-01T10:49:00.680Z,6.47
2019-06-01T10:51:32.096Z,6.12
2019-06-01T10:54:03.174Z,6.83
2019-06-01T10:56:34.371Z,6.53
2019-06-01T10:59:06.113Z,7.00
2019-06-01T11:01:37.854Z,7.05
2019-06-01T11:04:09.413Z,5.00
2019-06-01T11:06:44.914Z,10.32
2019-06-01T11:09:14.076Z,5.75
2019-06-01T11:11:44.877Z,7.85
2019-06-01T11:14:17.236Z,7.28
2019-06-01T11:16:55.767Z,5.25
2019-06-01T11:19:21.380Z,5.58
2019-06-01T11:21:52.585Z,7.25
2019-06-01T11:24:25.570Z,80.17
2019-06-01T11:26:56.761Z,5.53
2019-06-01T11:29:28.127Z,6.62
2019-06-01T11:31:58.946Z,6.28
2019-06-01T11:34:29.962Z,6.65
2019-06-01T11:37:05.402Z,6.55
2019-06-01T11:39:34.265Z,12.40
2019-06-01T11:42:05.433Z,9.63
2019-06-01T11:44:36.631Z,7.35
2019-06-01T11:47:07.237Z,4.47
2019-06-01T11:49:38.672Z,9.70
2019-06-01T11:52:09.694Z,7.60
2019-06-01T11:54:41.211Z,4.83
2019-06-01T11:57:12.537Z,6.03
2019-06-01T11:59:43.648Z,6.72
2019-06-01T12:02:14.448Z,6.97
2019-06-01T12:04:46.374Z,5.20
2019-06-01T12:07:18.747Z,5.80
2019-06-01T12:09:50.707Z,5.30
2019-06-01T12:12:21.735Z,4.78
2019-06-01T12:14:53.781Z,6.08
2019-06-01T12:17:24.890Z,4.22
2019-06-01T12:19:55.768Z,4.78
2019-06-01T12:22:26.916Z,7.60
2019-06-01T12:24:57.632Z,4.22
2019-06-01T12:27:29.926Z,6.72
2019-06-01T12:30:00.495Z,5.45
2019-06-01T12:32:32.935Z,7.67
2019-06-01T12:35:05.562Z,7.17
2019-06-01T12:37:56.074Z,4.83
2019-06-01T12:40:10.615Z,6.42
2019-06-01T12:42:41.642Z,7.72
2019-06-01T12:45:23.064Z,8.38
2019-06-01T12:47:57.715Z,4.25
2019-06-01T12:50:25.508Z,5.78
2019-06-01T12:52:57.225Z,4.85
2019-06-01T12:55:29.176Z,5.20
2019-06-01T12:57:59.906Z,7.10
2019-06-01T13:00:30.637Z,4.55
2019-06-01T13:03:07.546Z,4.72
2019-06-01T13:05:34.251Z,4.65
2019-06-01T13:08:05.625Z,5.30
2019-06-01T13:10:37.876Z,5.83
2019-06-01T13:13:08.832Z,4.60
2019-06-01T13:15:41.131Z,3.27
2019-06-01T13:18:13.432Z,4.03
2019-06-01T13:20:45.433Z,3.10
2019-06-01T13:23:16.265Z,2.92
2019-06-01T13:25:47.665Z,2.60
2019-06-01T13:28:18.745Z,3.22
2019-06-01T13:30:50.983Z,2.62
2019-06-01T13:33:22.386Z,2.98
2019-06-01T13:35:53.266Z,3.35
2019-06-01T13:38:24.753Z,4.85
2019-06-01T13:40:55.631Z,5.55
2019-06-01T13:43:26.555Z,4.60
2019-06-01T13:45:57.929Z,6.85
2019-06-01T13:48:29.114Z,4.80
2019-06-01T13:51:00.004Z,5.22
2019-06-01T13:53:31.093Z,6.00
2019-06-01T13:56:02.172Z,9.43
2019-06-01T13:58:33.613Z,7.33
2019-06-01T14:01:04.986Z,4.30
2019-06-01T14:03:36.649Z,4.22
2019-06-01T14:06:08.214Z,5.00
2019-06-01T14:08:39.996Z,5.05
2019-06-01T14:11:11.907Z,4.45
2019-06-01T14:13:43.736Z,19.92
2019-06-01T14:16:15.395Z,6.28
2019-06-01T14:18:47.647Z,4.30
2019-06-01T14:21:19.376Z,5.80
2019-06-01T14:23:51.959Z,5.33
2019-06-01T14:26:22.987Z,13.25
2019-06-01T14:28:54.176Z,48.45
2019-06-01T14:31:25.446Z,5.78
2019-06-01T14:33:56.844Z,4.25
2019-06-01T14:36:28.154Z,3.25
2019-06-01T14:38:59.398Z,3.52
2019-06-01T14:41:30.356Z,2.85
2019-06-01T14:44:04.735Z,2.85
2019-06-01T14:46:52.422Z,2.87
2019-06-01T14:49:08.924Z,3.27
2019-06-01T14:51:40.924Z,3.85
2019-06-01T14:54:11.772Z,3.45
2019-06-01T14:56:43.351Z,5.05
2019-06-01T14:59:14.399Z,3.20
2019-06-01T15:01:45.683Z,2.67
2019-06-01T15:04:18.386Z,2.00
2019-06-01T15:06:50.212Z,2.40
2019-06-01T15:09:22.490Z,3.42
2019-06-01T15:11:54.533Z,3.67
2019-06-01T15:14:25.234Z,3.80
2019-06-01T15:16:56.248Z,2.70
2019-06-01T15:19:27.114Z,3.83
2019-06-01T15:21:58.349Z,4.10
2019-06-01T15:24:30.506Z,2.42
2019-06-01T15:27:01.322Z,2.98
2019-06-01T15:29:32.369Z,2.90
2019-06-01T15:32:03.882Z,2.87
2019-06-01T15:34:35.307Z,2.50
2019-06-01T15:37:07.215Z,3.52
2019-06-01T15:39:37.952Z,2.72
2019-06-01T15:42:09.050Z,4.72
2019-06-01T15:44:40.194Z,4.37
2019-06-01T15:47:11.513Z,2.83
2019-06-01T15:49:42.835Z,2.20
2019-06-01T15:52:13.732Z,2.37
2019-06-01T15:54:45.240Z,3.12
2019-06-01T15:57:16.685Z,3.15
2019-06-01T15:59:48.854Z,3.02
2019-06-01T16:02:23.038Z,3.37
2019-06-01T16:05:01.291Z,3.80
2019-06-01T16:07:34.944Z,3.37
2019-06-01T16:10:12.178Z,4.33
2019-06-01T16:15:42.104Z,3.55
2019-06-01T16:18:13.309Z,4.08
2019-06-01T16:20:44.813Z,3.20
2019-06-01T16:23:15.802Z,3.72
2019-06-01T16:25:57.407Z,4.15
2019-06-01T16:28:19.956Z,3.58
2019-06-01T16:30:51.149Z,2.77
2019-06-01T16:33:22.518Z,3.98
2019-06-01T16:35:54.914Z,3.02
2019-06-01T16:38:26.594Z,4.28
2019-06-01T16:40:57.575Z,3.50
2019-06-01T16:43:29.211Z,3.60
2019-06-01T16:46:02.113Z,4.55
2019-06-01T16:48:33.088Z,2.83
2019-06-01T16:51:05.902Z,2.80
2019-06-01T16:53:37.610Z,3.08
2019-06-01T16:56:09.056Z,2.70
2019-06-01T16:58:39.910Z,4.67
2019-06-01T17:01:11.823Z,3.87
2019-06-01T17:03:42.902Z,3.67
2019-06-01T17:06:15.381Z,4.55
2019-06-01T17:08:47.624Z,3.77
2019-06-01T17:11:21.070Z,3.00
2019-06-01T17:13:53.017Z,3.50
2019-06-01T17:16:24.152Z,3.27
2019-06-01T17:18:55.377Z,4.22
2019-06-01T17:21:26.782Z,4.40
2019-06-01T17:23:57.763Z,2.87
2019-06-01T17:26:29.110Z,2.58
2019-06-01T17:29:02.010Z,8.40
2019-06-01T17:31:35.398Z,3.27
2019-06-01T17:34:08.632Z,3.22
2019-06-01T17:36:41.390Z,2.50
2019-06-01T17:39:12.835Z,2.95
2019-06-01T17:41:45.586Z,3.95
2019-06-01T17:44:18.638Z,3.55
2019-06-01T17:46:53.938Z,3.83
2019-06-01T17:49:23.968Z,4.00
2019-06-01T17:51:54.974Z,12.65
2019-06-01T17:54:27.250Z,5.65
2019-06-01T17:56:59.070Z,3.67
2019-06-01T17:59:30.530Z,7.15
2019-06-01T18:02:01.900Z,4.25
2019-06-01T18:04:34.901Z,5.45
2019-06-01T18:07:08.028Z,4.67
2019-06-01T18:09:39.316Z,7.37
2019-06-01T18:12:10.695Z,8.08
2019-06-01T18:14:42.641Z,8.38
2019-06-01T18:17:13.711Z,9.15
2019-06-01T18:19:46.158Z,17.70
2019-06-01T18:22:17.302Z,17.32
2019-06-01T18:24:48.221Z,19.02
2019-06-01T18:27:19.655Z,19.00
2019-06-01T18:29:50.520Z,18.80
2019-06-01T18:32:22.572Z,25.37
2019-06-01T18:34:53.777Z,28.95
2019-06-01T18:37:25.873Z,44.30
2019-06-01T18:39:57.017Z,15.70
2019-06-01T18:42:30.023Z,12.28
2019-06-01T18:45:03.476Z,25.90
2019-06-01T18:47:34.599Z,16.87
2019-06-01T18:50:10.010Z,21.85
2019-06-01T18:52:42.223Z,17.55
2019-06-01T18:55:14.799Z,15.30
2019-06-01T18:57:48.625Z,16.23
2019-06-01T19:00:19.797Z,12.20
2019-06-01T19:02:51.672Z,16.20
2019-06-01T19:05:22.661Z,12.25
2019-06-01T19:07:53.541Z,16.95
2019-06-01T19:10:24.680Z,24.00
2019-06-01T19:12:55.942Z,23.87
2019-06-01T19:15:28.919Z,15.58
2019-06-01T19:17:59.877Z,17.55
2019-06-01T19:20:33.160Z,28.12
2019-06-01T19:23:06.520Z,21.80
2019-06-01T19:25:37.371Z,30.97
2019-06-01T19:28:08.858Z,27.37
2019-06-01T19:30:42.136Z,24.63
2019-06-01T19:33:15.507Z,31.45
2019-06-01T19:35:45.813Z,22.13
2019-06-01T19:38:19.541Z,16.75
2019-06-01T19:40:50.975Z,20.08
2019-06-01T19:43:22.307Z,18.90
2019-06-01T19:45:53.410Z,22.77
2019-06-01T19:48:24.592Z,24.23
2019-06-01T19:50:55.682Z,19.05
2019-06-01T19:53:26.795Z,25.37
2019-06-01T19:55:58.502Z,22.67
2019-06-01T19:58:29.686Z,19.60
2019-06-01T20:01:00.726Z,16.90
2019-06-01T20:03:31.827Z,19.85
2019-06-01T20:06:02.479Z,21.37
2019-06-01T20:08:33.326Z,18.82
2019-06-01T20:11:04.534Z,20.15
2019-06-01T20:13:37.464Z,19.87
2019-06-01T20:16:10.746Z,17.92
2019-06-01T20:18:42.394Z,18.30
2019-06-01T20:21:16.018Z,19.82
2019-06-01T20:23:47.307Z,19.62
2019-06-01T20:26:19.395Z,19.05
2019-06-01T20:28:51.040Z,23.62
2019-06-01T20:31:22.339Z,18.03
2019-06-01T20:33:56.472Z,21.75
2019-06-01T20:36:27.367Z,22.10
2019-06-01T20:39:04.073Z,20.13
2019-06-01T20:41:32.994Z,21.70
2019-06-01T20:44:06.035Z,19.12
2019-06-01T20:46:37.564Z,24.43
2019-06-01T20:49:08.729Z,27.80
2019-06-01T20:51:39.878Z,22.87
2019-06-01T20:54:11.273Z,29.83
2019-06-01T20:56:42.406Z,23.50
2019-06-01T20:59:17.221Z,25.43
2019-06-01T21:01:47.503Z,24.13
2019-06-01T21:04:22.292Z,22.93
2019-06-01T21:06:53.707Z,25.33
2019-06-01T21:09:24.566Z,25.30
2019-06-01T21:11:55.591Z,21.90
2019-06-01T21:14:26.552Z,19.77
2019-06-01T21:16:58.267Z,19.90
2019-06-01T21:19:29.734Z,19.30
2019-06-01T21:22:00.662Z,22.37
2019-06-01T21:24:33.128Z,22.77
2019-06-01T21:27:06.055Z,20.07
2019-06-01T21:29:37.226Z,29.17
2019-06-01T21:32:09.106Z,27.40
2019-06-01T21:34:40.060Z,23.00
2019-06-01T21:37:11.563Z,20.00
2019-06-01T21:39:44.351Z,31.03
2019-06-01T21:42:15.528Z,24.17
2019-06-01T21:44:46.817Z,28.00
2019-06-01T21:47:17.970Z,25.13
2019-06-01T21:49:49.025Z,27.97
2019-06-01T21:52:20.054Z,29.90
2019-06-01T21:54:50.782Z,24.27
2019-06-01T21:57:22.381Z,21.67
2019-06-01T21:59:53.738Z,27.23
2019-06-01T22:02:25.106Z,21.90
2019-06-01T22:04:57.097Z,28.80
2019-06-01T22:07:28.139Z,25.10
2019-06-01T22:10:01.817Z,27.37
2019-06-01T22:12:32.793Z,21.87
2019-06-01T22:15:04.260Z,25.50
2019-06-01T22:17:37.057Z,26.33
2019-06-01T22:20:08.252Z,27.93
2019-06-01T22:22:39.235Z,28.07
2019-06-01T22:25:10.947Z,21.20
2019-06-01T22:27:41.825Z,27.97
2019-06-01T22:30:13.714Z,25.17
2019-06-01T22:32:45.283Z,31.53
2019-06-01T22:35:16.669Z,27.97
2019-06-01T22:37:48.806Z,26.30
2019-06-01T22:40:20.855Z,22.07
2019-06-01T22:42:51.722Z,24.90
2019-06-01T22:45:22.594Z,23.30
2019-06-01T22:47:53.679Z,21.57
2019-06-01T22:50:24.837Z,23.97
2019-06-01T22:52:56.153Z,19.30
2019-06-01T22:55:28.344Z,22.53
2019-06-01T22:57:59.662Z,18.60
2019-06-01T23:00:31.990Z,18.03
2019-06-01T23:03:02.912Z,16.87
2019-06-01T23:05:33.931Z,20.57
2019-06-01T23:08:05.479Z,20.70
2019-06-01T23:10:36.624Z,20.23
2019-06-01T23:13:07.745Z,16.80
2019-06-01T23:15:38.956Z,20.50
2019-06-01T23:18:12.886Z,16.60
2019-06-01T23:20:43.673Z,16.27
2019-06-01T23:23:14.692Z,17.73
2019-06-01T23:25:45.769Z,17.07
2019-06-01T23:28:16.947Z,24.73
2019-06-01T23:30:47.849Z,15.83
2019-06-01T23:33:18.681Z,19.97
2019-06-01T23:35:49.515Z,16.90
2019-06-01T23:38:20.437Z,19.23
2019-06-01T23:40:51.886Z,16.97
2019-06-01T23:43:22.814Z,17.43
2019-06-01T23:45:53.977Z,16.07
2019-06-01T23:48:25.153Z,16.10
2019-06-01T23:50:57.255Z,16.07
2019-06-01T23:53:29.492Z,16.00
2019-06-01T23:56:00.403Z,14.53
2019-06-01T23:58:32.516Z,17.10
